createdAt,value
2023-03-06T00:00:17.320Z,16.70
2023-03-06T00:01:17.646Z,16.10
2023-03-06T00:02:18.010Z,15.80
2023-03-06T00:03:18.296Z,15.80
2023-03-06T00:04:18.651Z,15.00
2023-03-06T00:05:18.962Z,14.20
2023-03-06T00:06:19.282Z,14.60
2023-03-06T00:07:19.594Z,13.80
2023-03-06T00:08:19.892Z,12.70
2023-03-06T00:09:20.178Z,13.00
2023-03-06T00:10:20.542Z,13.00
2023-03-06T00:11:20.877Z,13.70
2023-03-06T00:12:21.144Z,14.10
2023-03-06T00:13:21.464Z,12.00
2023-03-06T00:14:21.833Z,12.70
2023-03-06T00:15:22.115Z,12.50
2023-03-06T00:16:22.505Z,12.90
2023-03-06T00:17:22.705Z,12.40
2023-03-06T00:18:22.998Z,12.30
2023-03-06T00:19:23.324Z,12.50
2023-03-06T00:20:23.600Z,14.20
2023-03-06T00:21:23.983Z,13.00
2023-03-06T00:22:24.291Z,12.10
2023-03-06T00:23:24.589Z,11.70
2023-03-06T00:24:24.897Z,12.10
2023-03-06T00:25:25.184Z,12.10
2023-03-06T00:26:25.553Z,11.90
2023-03-06T00:27:25.828Z,12.70
2023-03-06T00:28:26.192Z,11.60
2023-03-06T00:29:26.464Z,12.00
2023-03-06T00:30:26.833Z,12.90
2023-03-06T00:31:27.164Z,11.50
2023-03-06T00:32:27.493Z,14.10
2023-03-06T00:33:27.804Z,11.60
2023-03-06T00:34:28.084Z,11.80
2023-03-06T00:35:28.419Z,11.00
2023-03-06T00:36:28.770Z,14.20
2023-03-06T00:37:29.080Z,11.50
2023-03-06T00:38:29.380Z,12.50
2023-03-06T00:39:29.704Z,12.60
2023-03-06T00:40:30.032Z,13.40
2023-03-06T00:41:30.362Z,11.20
2023-03-06T00:42:30.688Z,11.20
2023-03-06T00:43:31.000Z,12.00
2023-03-06T00:44:31.294Z,11.60
2023-03-06T00:45:31.632Z,11.10
2023-03-06T00:46:31.973Z,12.40
2023-03-06T00:47:32.329Z,12.00
2023-03-06T00:48:32.613Z,12.50
2023-03-06T00:49:32.957Z,11.40
2023-03-06T00:50:33.264Z,11.50
2023-03-06T00:51:33.579Z,11.50
2023-03-06T00:52:33.934Z,11.60
2023-03-06T00:53:34.192Z,11.40
2023-03-06T00:54:34.519Z,12.60
2023-03-06T00:55:34.862Z,12.70
2023-03-06T00:56:35.162Z,14.20
2023-03-06T00:57:35.463Z,13.20
2023-03-06T00:58:35.767Z,11.10
2023-03-06T00:59:36.062Z,11.40
2023-03-06T01:00:36.442Z,11.30
2023-03-06T01:01:36.729Z,11.50
2023-03-06T01:02:37.057Z,11.80
2023-03-06T01:03:37.328Z,12.00
2023-03-06T01:04:37.659Z,12.10
2023-03-06T01:05:38.009Z,12.60
2023-03-06T01:06:38.373Z,12.80
2023-03-06T01:07:38.565Z,12.80
2023-03-06T01:08:38.890Z,13.60
2023-03-06T01:09:39.162Z,14.60
2023-03-06T01:10:39.469Z,12.90
2023-03-06T01:11:39.836Z,11.30
2023-03-06T01:12:40.113Z,12.20
2023-03-06T01:13:40.438Z,12.90
2023-03-06T01:14:40.796Z,13.30
2023-03-06T01:15:41.094Z,11.70
2023-03-06T01:16:41.479Z,12.50
2023-03-06T01:17:41.664Z,13.80
2023-03-06T01:18:41.965Z,14.00
2023-03-06T01:19:42.303Z,15.20
2023-03-06T01:20:42.621Z,12.90
2023-03-06T01:21:42.985Z,14.30
2023-03-06T01:22:43.171Z,14.30
2023-03-06T01:23:43.518Z,15.20
2023-03-06T01:24:43.826Z,15.80
2023-03-06T01:25:44.154Z,14.90
2023-03-06T01:26:44.511Z,13.90
2023-03-06T01:27:44.777Z,14.00
2023-03-06T01:28:45.153Z,13.40
2023-03-06T01:29:45.482Z,16.00
2023-03-06T01:30:45.757Z,15.50
2023-03-06T01:31:46.134Z,14.90
2023-03-06T01:32:46.416Z,15.90
2023-03-06T01:33:46.745Z,15.60
2023-03-06T01:34:47.015Z,15.80
2023-03-06T01:35:47.384Z,18.20
2023-03-06T01:36:47.737Z,17.40
2023-03-06T01:37:48.054Z,17.70
2023-03-06T01:38:48.473Z,16.60
2023-03-06T01:39:48.770Z,16.50
2023-03-06T01:40:49.126Z,17.10
2023-03-06T01:41:49.236Z,16.40
2023-03-06T01:42:49.727Z,17.00
2023-03-06T01:43:49.886Z,16.90
2023-03-06T01:44:50.211Z,18.40
2023-03-06T01:45:50.558Z,16.50
2023-03-06T01:46:50.834Z,19.50
2023-03-06T01:47:51.368Z,17.70
2023-03-06T01:48:51.460Z,18.50
2023-03-06T01:49:51.789Z,18.00
2023-03-06T01:50:52.120Z,18.60
2023-03-06T01:51:52.456Z,17.50
2023-03-06T01:52:52.830Z,19.70
2023-03-06T01:53:53.048Z,18.60
2023-03-06T01:54:53.336Z,18.20
2023-03-06T01:55:53.677Z,17.80
2023-03-06T01:56:54.052Z,17.60
2023-03-06T01:57:54.370Z,17.30
2023-03-06T01:58:54.653Z,18.00
2023-03-06T01:59:54.979Z,18.80
2023-03-06T02:00:55.409Z,19.50
2023-03-06T02:01:55.577Z,17.50
2023-03-06T02:02:55.886Z,19.20
2023-03-06T02:03:56.196Z,17.90
2023-03-06T02:04:56.475Z,18.40
2023-03-06T02:05:56.820Z,19.60
2023-03-06T02:06:57.096Z,23.20
2023-03-06T02:07:57.448Z,19.20
2023-03-06T02:08:57.725Z,21.10
2023-03-06T02:09:58.072Z,19.10
2023-03-06T02:10:58.416Z,18.50
2023-03-06T02:11:58.678Z,18.40
2023-03-06T02:12:59.038Z,19.50
2023-03-06T02:13:59.350Z,18.10
2023-03-06T02:14:59.634Z,18.10
2023-03-06T02:15:59.965Z,17.70
2023-03-06T02:17:00.346Z,19.50
2023-03-06T02:18:00.678Z,20.10
2023-03-06T02:19:00.965Z,20.30
2023-03-06T02:20:01.261Z,20.00
2023-03-06T02:21:01.554Z,18.70
2023-03-06T02:22:01.902Z,18.50
2023-03-06T02:23:02.226Z,19.50
2023-03-06T02:24:02.512Z,18.80
2023-03-06T02:25:02.809Z,19.20
2023-03-06T02:26:03.123Z,21.00
2023-03-06T02:27:03.464Z,19.80
2023-03-06T02:28:03.760Z,18.80
2023-03-06T02:29:04.112Z,20.70
2023-03-06T02:30:04.412Z,19.90
2023-03-06T02:31:04.748Z,21.00
2023-03-06T02:32:05.012Z,19.20
2023-03-06T02:33:05.231Z,20.10
2023-03-06T02:34:05.541Z,19.70
2023-03-06T02:35:05.852Z,19.40
2023-03-06T02:36:06.135Z,19.30
2023-03-06T02:37:06.505Z,19.70
2023-03-06T02:38:06.827Z,19.30
2023-03-06T02:39:07.130Z,20.40
2023-03-06T02:40:07.422Z,21.40
2023-03-06T02:41:07.735Z,20.20
2023-03-06T02:42:08.086Z,19.60
2023-03-06T02:43:08.467Z,21.70
2023-03-06T02:44:08.656Z,20.90
2023-03-06T02:45:08.961Z,23.80
2023-03-06T02:46:09.314Z,20.10
2023-03-06T02:47:09.528Z,22.20
2023-03-06T02:48:09.840Z,22.10
2023-03-06T02:49:10.165Z,20.80
2023-03-06T02:50:10.468Z,20.90
2023-03-06T02:51:10.810Z,21.90
2023-03-06T02:52:11.243Z,21.80
2023-03-06T02:53:11.430Z,22.10
2023-03-06T02:54:11.699Z,22.30
2023-03-06T02:55:12.000Z,23.60
2023-03-06T02:56:12.321Z,21.20
2023-03-06T02:57:12.622Z,21.00
2023-03-06T02:58:13.105Z,21.90
2023-03-06T02:59:13.265Z,20.50
2023-03-06T03:00:13.594Z,21.40
2023-03-06T03:01:14.015Z,24.50
2023-03-06T03:02:14.208Z,21.00
2023-03-06T03:03:14.499Z,22.30
2023-03-06T03:04:14.947Z,23.10
2023-03-06T03:05:15.157Z,22.10
2023-03-06T03:06:15.458Z,25.70
2023-03-06T03:07:15.888Z,24.20
2023-03-06T03:08:16.007Z,23.30
2023-03-06T03:09:16.293Z,24.60
2023-03-06T03:10:16.655Z,24.50
2023-03-06T03:11:16.971Z,25.40
2023-03-06T03:12:17.423Z,23.70
2023-03-06T03:13:17.593Z,22.90
2023-03-06T03:14:17.908Z,24.40
2023-03-06T03:15:18.373Z,23.40
2023-03-06T03:16:18.552Z,22.40
2023-03-06T03:17:18.876Z,25.10
2023-03-06T03:18:19.257Z,21.80
2023-03-06T03:19:19.493Z,23.30
2023-03-06T03:20:19.675Z,23.80
2023-03-06T03:21:20.016Z,24.30
2023-03-06T03:22:20.336Z,25.00
2023-03-06T03:23:20.676Z,23.10
2023-03-06T03:24:20.936Z,27.00
2023-03-06T03:25:21.163Z,24.40
2023-03-06T03:26:21.517Z,25.50
2023-03-06T03:27:21.737Z,24.40
2023-03-06T03:28:22.074Z,23.80
2023-03-06T03:29:22.480Z,24.30
2023-03-06T03:30:22.622Z,24.90
2023-03-06T03:31:22.999Z,27.50
2023-03-06T03:32:23.478Z,25.20
2023-03-06T03:33:23.649Z,25.80
2023-03-06T03:34:23.972Z,24.00
2023-03-06T03:35:24.346Z,22.40
2023-03-06T03:36:24.573Z,24.20
2023-03-06T03:37:24.743Z,25.00
2023-03-06T03:38:25.170Z,24.40
2023-03-06T03:39:25.353Z,26.50
2023-03-06T03:40:25.757Z,26.90
2023-03-06T03:41:25.910Z,29.60
2023-03-06T03:42:26.230Z,26.90
2023-03-06T03:43:26.580Z,28.60
2023-03-06T03:44:26.744Z,24.90
2023-03-06T03:45:27.132Z,25.10
2023-03-06T03:46:27.481Z,26.20
2023-03-06T03:47:27.658Z,26.60
2023-03-06T03:48:28.020Z,24.20
2023-03-06T03:49:28.334Z,25.30
2023-03-06T03:50:28.623Z,24.60
2023-03-06T03:51:29.020Z,26.10
2023-03-06T03:52:29.330Z,26.80
2023-03-06T03:53:29.633Z,25.60
2023-03-06T03:54:29.943Z,25.60
2023-03-06T03:55:30.272Z,28.10
2023-03-06T03:56:30.565Z,26.70
2023-03-06T03:57:30.887Z,28.20
2023-03-06T03:58:31.190Z,26.30
2023-03-06T03:59:31.531Z,27.80
2023-03-06T04:00:31.822Z,26.70
2023-03-06T04:01:32.161Z,25.90
2023-03-06T04:02:32.471Z,25.70
2023-03-06T04:03:32.762Z,26.60
2023-03-06T04:04:33.158Z,25.40
2023-03-06T04:05:33.333Z,25.20
2023-03-06T04:06:33.630Z,24.90
2023-03-06T04:07:33.955Z,26.50
2023-03-06T04:08:34.343Z,24.10
2023-03-06T04:09:34.545Z,24.10
2023-03-06T04:10:34.818Z,23.20
2023-03-06T04:11:35.170Z,28.40
2023-03-06T04:12:35.460Z,24.30
2023-03-06T04:13:35.775Z,23.00
2023-03-06T04:14:36.079Z,25.70
2023-03-06T04:15:36.369Z,24.40
2023-03-06T04:16:36.730Z,25.20
2023-03-06T04:17:36.892Z,28.00
2023-03-06T04:18:37.301Z,27.00
2023-03-06T04:19:37.490Z,26.50
2023-03-06T04:20:37.806Z,26.30
2023-03-06T04:21:38.094Z,27.50
2023-03-06T04:22:38.464Z,27.10
2023-03-06T04:23:38.843Z,26.80
2023-03-06T04:24:39.003Z,29.90
2023-03-06T04:25:39.365Z,31.10
2023-03-06T04:26:39.643Z,29.30
2023-03-06T04:27:39.997Z,29.60
2023-03-06T04:28:40.342Z,28.20
2023-03-06T04:29:40.612Z,28.90
2023-03-06T04:30:40.942Z,29.90
2023-03-06T04:31:41.367Z,31.20
2023-03-06T04:32:41.593Z,32.40
2023-03-06T04:33:41.911Z,34.50
2023-03-06T04:34:42.211Z,32.50
2023-03-06T04:35:42.578Z,33.80
2023-03-06T04:36:42.813Z,32.40
2023-03-06T04:37:43.176Z,32.50
2023-03-06T04:38:43.543Z,32.40
2023-03-06T04:39:43.773Z,33.30
2023-03-06T04:40:45.004Z,34.40
2023-03-06T04:41:44.293Z,33.00
2023-03-06T04:42:44.629Z,33.80
2023-03-06T04:43:44.939Z,33.80
2023-03-06T04:44:45.232Z,35.20
2023-03-06T04:45:45.591Z,35.10
2023-03-06T04:46:45.916Z,34.40
2023-03-06T04:47:46.194Z,35.60
2023-03-06T04:48:46.594Z,37.40
2023-03-06T04:49:46.891Z,36.70
2023-03-06T04:50:47.194Z,37.20
2023-03-06T04:51:47.507Z,35.40
2023-03-06T04:52:47.829Z,36.70
2023-03-06T04:53:48.162Z,36.10
2023-03-06T04:54:48.461Z,33.10
2023-03-06T04:55:48.744Z,37.90
2023-03-06T04:56:49.083Z,36.40
2023-03-06T04:57:49.412Z,36.10
2023-03-06T04:58:49.778Z,36.70
2023-03-06T04:59:49.981Z,36.10
2023-03-06T05:00:50.362Z,37.90
2023-03-06T05:01:50.541Z,34.40
2023-03-06T05:02:50.794Z,35.20
2023-03-06T05:03:51.110Z,37.90
2023-03-06T05:04:51.381Z,36.20
2023-03-06T05:05:51.786Z,37.80
2023-03-06T05:06:52.194Z,36.80
2023-03-06T05:07:52.391Z,35.20
2023-03-06T05:08:52.836Z,34.60
2023-03-06T05:09:52.848Z,34.80
2023-03-06T05:10:53.158Z,38.70
2023-03-06T05:11:53.489Z,38.20
2023-03-06T05:12:53.802Z,35.20
2023-03-06T05:13:58.162Z,38.70
2023-03-06T05:14:54.556Z,37.80
2023-03-06T05:16:01.743Z,41.40
2023-03-06T05:16:54.895Z,41.30
2023-03-06T05:17:55.227Z,38.90
2023-03-06T05:18:55.605Z,36.80
2023-03-06T05:19:55.953Z,37.90
2023-03-06T05:20:56.145Z,36.30
2023-03-06T05:21:56.470Z,36.20
2023-03-06T05:22:56.820Z,42.40
2023-03-06T05:23:57.151Z,38.50
2023-03-06T05:24:57.361Z,40.40
2023-03-06T05:25:57.702Z,40.10
2023-03-06T05:26:57.928Z,41.20
2023-03-06T05:27:58.281Z,40.30
2023-03-06T05:28:58.633Z,39.30
2023-03-06T05:29:58.827Z,38.40
2023-03-06T05:30:59.894Z,40.00
2023-03-06T05:31:59.483Z,38.30
2023-03-06T05:32:59.700Z,46.30
2023-03-06T05:34:00.038Z,40.60
2023-03-06T05:35:00.305Z,42.60
2023-03-06T05:36:00.498Z,42.90
2023-03-06T05:37:01.931Z,39.40
2023-03-06T05:38:01.066Z,43.00
2023-03-06T05:39:01.414Z,43.10
2023-03-06T05:40:01.599Z,40.80
2023-03-06T05:41:01.889Z,42.30
2023-03-06T05:42:02.090Z,39.00
2023-03-06T05:43:02.415Z,43.70
2023-03-06T05:44:02.777Z,45.40
2023-03-06T05:45:02.960Z,42.20
2023-03-06T05:46:03.340Z,42.50
2023-03-06T05:47:03.583Z,43.40
2023-03-06T05:48:03.871Z,41.60
2023-03-06T05:49:04.256Z,41.40
2023-03-06T05:50:04.585Z,44.40
2023-03-06T05:51:04.886Z,43.60
2023-03-06T05:52:05.161Z,41.30
2023-03-06T05:53:05.329Z,43.70
2023-03-06T05:54:05.692Z,39.80
2023-03-06T05:55:06.012Z,42.10
2023-03-06T05:56:15.138Z,42.00
2023-03-06T05:57:06.679Z,42.70
2023-03-06T05:58:06.877Z,40.10
2023-03-06T05:59:07.257Z,41.70
2023-03-06T06:00:07.424Z,41.70
2023-03-06T06:01:07.801Z,42.30
2023-03-06T06:02:08.136Z,44.20
2023-03-06T06:03:08.517Z,43.10
2023-03-06T06:04:08.768Z,42.60
2023-03-06T06:05:10.777Z,43.00
2023-03-06T06:06:09.325Z,42.00
2023-03-06T06:07:09.617Z,46.20
2023-03-06T06:08:09.913Z,46.70
2023-03-06T06:09:12.823Z,45.60
2023-03-06T06:10:10.578Z,42.60
2023-03-06T06:11:10.917Z,42.70
2023-03-06T06:12:11.209Z,47.20
2023-03-06T06:13:11.587Z,49.20
2023-03-06T06:14:11.883Z,45.40
2023-03-06T06:15:12.295Z,46.30
2023-03-06T06:16:12.517Z,43.10
2023-03-06T06:17:13.127Z,43.00
2023-03-06T06:18:13.186Z,43.60
2023-03-06T06:19:13.369Z,45.60
2023-03-06T06:20:13.655Z,46.50
2023-03-06T06:21:13.889Z,44.70
2023-03-06T06:22:14.081Z,46.10
2023-03-06T06:23:14.338Z,47.20
2023-03-06T06:24:14.687Z,46.20
2023-03-06T06:25:14.861Z,49.30
2023-03-06T06:26:15.180Z,47.90
2023-03-06T06:27:15.575Z,46.40
2023-03-06T06:28:15.873Z,47.30
2023-03-06T06:29:16.246Z,46.20
2023-03-06T06:30:16.567Z,46.40
2023-03-06T06:31:16.941Z,48.00
2023-03-06T06:32:17.227Z,48.30
2023-03-06T06:33:17.410Z,44.60
2023-03-06T06:34:17.698Z,49.00
2023-03-06T06:35:17.900Z,49.80
2023-03-06T06:36:18.155Z,48.20
2023-03-06T06:37:18.468Z,51.30
2023-03-06T06:38:18.726Z,48.70
2023-03-06T06:39:18.986Z,51.10
2023-03-06T06:40:19.190Z,49.70
2023-03-06T06:41:39.283Z,48.80
2023-03-06T06:42:31.575Z,50.00
2023-03-06T06:43:21.118Z,50.20
2023-03-06T06:44:20.420Z,50.20
2023-03-06T06:45:20.626Z,49.50
2023-03-06T06:47:09.361Z,51.20
2023-03-06T06:47:24.882Z,49.60
2023-03-06T06:48:21.554Z,48.00
2023-03-06T06:49:21.916Z,47.70
2023-03-06T06:50:22.128Z,52.00
2023-03-06T06:51:22.500Z,49.40
2023-03-06T06:52:22.704Z,49.80
2023-03-06T06:53:23.046Z,49.80
2023-03-06T06:54:23.312Z,48.80
2023-03-06T06:55:23.535Z,49.70
2023-03-06T06:56:23.730Z,48.90
2023-03-06T06:57:24.004Z,49.50
2023-03-06T06:58:24.204Z,50.20
2023-03-06T06:59:24.587Z,50.20
2023-03-06T07:00:24.841Z,49.30
2023-03-06T07:01:25.065Z,49.90
2023-03-06T07:02:25.398Z,52.10
2023-03-06T07:03:25.620Z,48.00
2023-03-06T07:04:25.910Z,47.50
2023-03-06T07:05:26.120Z,49.00
2023-03-06T07:06:26.480Z,50.80
2023-03-06T07:07:26.670Z,52.10
2023-03-06T07:08:26.938Z,50.90
2023-03-06T07:09:27.269Z,53.40
2023-03-06T07:10:27.614Z,49.60
2023-03-06T07:11:27.839Z,48.20
2023-03-06T07:12:28.197Z,48.70
2023-03-06T07:13:28.525Z,48.90
2023-03-06T07:14:28.741Z,49.20
2023-03-06T07:15:29.001Z,47.70
2023-03-06T07:16:29.321Z,45.80
2023-03-06T07:17:29.560Z,46.30
2023-03-06T07:18:29.811Z,47.60
2023-03-06T07:19:30.085Z,46.00
2023-03-06T07:20:30.408Z,46.40
2023-03-06T07:21:30.749Z,48.10
2023-03-06T07:22:41.433Z,45.80
2023-03-06T07:23:32.258Z,42.70
2023-03-06T07:24:31.542Z,47.20
2023-03-06T07:25:31.792Z,45.60
2023-03-06T07:26:34.482Z,46.60
2023-03-06T07:27:32.462Z,42.40
2023-03-06T07:28:46.119Z,47.60
2023-03-06T07:29:33.968Z,46.20
2023-03-06T07:30:33.286Z,49.40
2023-03-06T07:31:33.542Z,48.40
2023-03-06T07:32:33.801Z,49.80
2023-03-06T07:33:34.035Z,49.80
2023-03-06T07:34:34.389Z,45.70
2023-03-06T07:35:34.642Z,48.10
2023-03-06T07:36:34.872Z,46.00
2023-03-06T07:37:35.071Z,44.60
2023-03-06T07:38:35.354Z,47.90
2023-03-06T07:39:35.555Z,46.30
2023-03-06T07:40:35.898Z,45.50
2023-03-06T07:41:36.207Z,46.00
2023-03-06T07:42:36.467Z,46.40
2023-03-06T07:43:36.870Z,50.30
2023-03-06T07:44:37.091Z,45.90
2023-03-06T07:45:37.325Z,48.60
2023-03-06T07:46:37.649Z,47.90
2023-03-06T07:47:37.875Z,46.30
2023-03-06T07:48:38.087Z,47.30
2023-03-06T07:49:38.371Z,46.70
2023-03-06T07:50:38.633Z,50.70
2023-03-06T07:51:38.883Z,46.60
2023-03-06T07:52:39.128Z,43.00
2023-03-06T07:53:39.362Z,40.70
2023-03-06T07:54:39.624Z,42.00
2023-03-06T07:55:39.886Z,43.10
2023-03-06T07:56:40.128Z,41.80
2023-03-06T07:57:40.373Z,45.40
2023-03-06T07:58:40.578Z,42.20
2023-03-06T07:59:40.844Z,41.90
2023-03-06T08:00:41.223Z,44.90
2023-03-06T08:01:41.435Z,47.40
2023-03-06T08:02:41.891Z,43.30
2023-03-06T08:03:42.070Z,43.90
2023-03-06T08:04:42.309Z,39.60
2023-03-06T08:05:42.598Z,39.80
2023-03-06T08:06:42.861Z,37.90
2023-03-06T08:07:43.086Z,37.80
2023-03-06T08:08:58.492Z,37.30
2023-03-06T08:09:43.592Z,37.80
2023-03-06T08:10:45.569Z,39.10
2023-03-06T08:11:44.118Z,36.70
2023-03-06T08:12:44.351Z,41.00
2023-03-06T08:13:44.630Z,39.40
2023-03-06T08:14:44.836Z,36.40
2023-03-06T08:15:45.089Z,36.90
2023-03-06T08:16:45.317Z,39.60
2023-03-06T08:17:45.567Z,40.20
2023-03-06T08:18:46.578Z,40.10
2023-03-06T08:19:46.095Z,39.30
2023-03-06T08:20:46.368Z,41.70
2023-03-06T08:21:46.561Z,39.80
2023-03-06T08:22:46.848Z,41.80
2023-03-06T08:23:47.099Z,41.20
2023-03-06T08:24:47.291Z,40.60
2023-03-06T08:25:47.594Z,39.60
2023-03-06T08:26:47.810Z,44.90
2023-03-06T08:27:48.046Z,41.50
2023-03-06T08:28:48.347Z,39.90
2023-03-06T08:29:48.548Z,42.90
2023-03-06T08:30:48.877Z,42.50
2023-03-06T08:31:49.143Z,41.90
2023-03-06T08:32:49.383Z,44.70
2023-03-06T08:33:49.595Z,44.80
2023-03-06T08:34:49.855Z,42.50
2023-03-06T08:35:50.159Z,40.50
2023-03-06T08:36:50.423Z,42.60
2023-03-06T08:37:50.647Z,47.90
2023-03-06T08:38:50.860Z,44.20
2023-03-06T08:39:51.142Z,43.00
2023-03-06T08:40:51.405Z,46.00
2023-03-06T08:41:51.643Z,43.60
2023-03-06T08:42:51.877Z,44.10
2023-03-06T08:43:52.078Z,42.70
2023-03-06T08:44:52.405Z,45.00
2023-03-06T08:45:52.637Z,41.10
2023-03-06T08:46:52.852Z,42.70
2023-03-06T08:47:53.081Z,44.30
2023-03-06T08:48:53.345Z,39.20
2023-03-06T08:49:53.662Z,41.90
2023-03-06T08:50:53.941Z,38.90
2023-03-06T08:51:54.172Z,38.90
2023-03-06T08:52:54.494Z,40.60
2023-03-06T08:53:54.798Z,39.60
2023-03-06T08:54:55.026Z,41.50
2023-03-06T08:55:55.284Z,40.00
2023-03-06T08:56:55.499Z,38.30
2023-03-06T08:57:55.816Z,41.00
2023-03-06T08:58:56.087Z,39.40
2023-03-06T08:59:56.456Z,37.70
2023-03-06T09:00:56.749Z,38.10
2023-03-06T09:01:57.026Z,39.30
2023-03-06T09:02:57.246Z,38.30
2023-03-06T09:03:57.513Z,36.50
2023-03-06T09:04:57.883Z,37.40
2023-03-06T09:05:58.130Z,33.50
2023-03-06T09:06:58.361Z,36.30
2023-03-06T09:07:58.616Z,34.90
2023-03-06T09:08:58.834Z,33.40
2023-03-06T09:09:59.109Z,35.30
2023-03-06T09:10:59.297Z,34.80
2023-03-06T09:11:59.575Z,33.90
2023-03-06T09:12:59.791Z,34.50
2023-03-06T09:14:00.041Z,33.30
2023-03-06T09:15:00.274Z,36.80
2023-03-06T09:16:00.517Z,35.20
2023-03-06T09:17:00.724Z,34.20
2023-03-06T09:18:01.013Z,33.70
2023-03-06T09:19:01.252Z,36.60
2023-03-06T09:20:01.613Z,35.00
2023-03-06T09:21:01.844Z,34.60
2023-03-06T09:22:02.063Z,35.40
2023-03-06T09:23:02.289Z,40.00
2023-03-06T09:24:02.537Z,35.00
2023-03-06T09:25:02.825Z,34.60
2023-03-06T09:26:03.089Z,32.10
2023-03-06T09:27:03.333Z,34.10
2023-03-06T09:28:11.272Z,31.50
2023-03-06T09:29:04.768Z,31.10
2023-03-06T09:30:04.070Z,35.00
2023-03-06T09:31:04.309Z,34.20
2023-03-06T09:32:04.591Z,32.90
2023-03-06T09:33:04.826Z,34.00
2023-03-06T09:34:05.062Z,30.50
2023-03-06T09:35:05.295Z,34.10
2023-03-06T09:36:05.618Z,33.30
2023-03-06T09:37:05.908Z,32.40
2023-03-06T09:38:06.134Z,34.80
2023-03-06T09:39:06.336Z,33.00
2023-03-06T09:40:06.602Z,31.80
2023-03-06T09:41:13.004Z,32.70
2023-03-06T09:42:07.151Z,36.20
2023-03-06T09:43:07.340Z,35.00
2023-03-06T09:44:07.626Z,35.20
2023-03-06T09:45:07.931Z,35.10
2023-03-06T09:46:08.234Z,36.50
2023-03-06T09:47:08.448Z,35.50
2023-03-06T09:48:08.693Z,32.90
2023-03-06T09:49:08.897Z,34.60
2023-03-06T09:50:09.193Z,36.00
2023-03-06T09:51:09.411Z,37.90
2023-03-06T09:52:09.683Z,35.00
2023-03-06T09:53:09.892Z,35.00
2023-03-06T09:54:10.164Z,35.10
2023-03-06T09:55:10.399Z,31.80
2023-03-06T09:56:10.715Z,32.10
2023-03-06T09:57:10.985Z,36.30
2023-03-06T09:58:11.309Z,34.90
2023-03-06T09:59:11.576Z,35.80
2023-03-06T10:00:11.821Z,34.60
2023-03-06T10:01:12.044Z,36.50
2023-03-06T10:02:12.546Z,34.40
2023-03-06T10:03:12.799Z,35.80
2023-03-06T10:04:12.941Z,33.20
2023-03-06T10:05:13.360Z,32.40
2023-03-06T10:06:13.576Z,31.40
2023-03-06T10:07:13.806Z,32.20
2023-03-06T10:08:14.077Z,34.20
2023-03-06T10:09:14.331Z,34.00
2023-03-06T10:10:14.576Z,31.60
2023-03-06T10:11:14.826Z,37.70
2023-03-06T10:12:15.028Z,33.50
2023-03-06T10:13:15.291Z,31.50
2023-03-06T10:14:15.526Z,33.00
2023-03-06T10:15:15.815Z,33.50
2023-03-06T10:16:16.124Z,30.70
2023-03-06T10:17:16.358Z,32.20
2023-03-06T10:18:16.603Z,30.80
2023-03-06T10:19:16.854Z,29.90
2023-03-06T10:20:17.096Z,31.20
2023-03-06T10:21:19.475Z,30.30
2023-03-06T10:22:17.647Z,31.80
2023-03-06T10:23:17.948Z,27.90
2023-03-06T10:24:18.200Z,30.80
2023-03-06T10:25:18.443Z,28.80
2023-03-06T10:26:18.801Z,29.90
2023-03-06T10:27:19.018Z,32.90
2023-03-06T10:28:19.282Z,28.30
2023-03-06T10:29:19.475Z,29.00
2023-03-06T10:30:19.745Z,26.00
2023-03-06T10:31:19.971Z,28.70
2023-03-06T10:32:20.286Z,27.30
2023-03-06T10:33:20.559Z,25.60
2023-03-06T10:34:20.797Z,26.90
2023-03-06T10:35:21.089Z,26.50
2023-03-06T10:36:21.338Z,25.10
2023-03-06T10:37:21.550Z,26.80
2023-03-06T10:38:21.822Z,23.70
2023-03-06T10:39:22.070Z,23.80
2023-03-06T10:40:22.286Z,22.80
2023-03-06T10:41:22.568Z,22.90
2023-03-06T10:42:22.788Z,23.50
2023-03-06T10:43:23.149Z,22.00
2023-03-06T10:44:23.383Z,25.30
2023-03-06T10:45:23.679Z,23.60
2023-03-06T10:46:23.907Z,22.10
2023-03-06T10:47:24.152Z,21.10
2023-03-06T10:48:24.476Z,20.50
2023-03-06T10:49:24.755Z,23.60
2023-03-06T10:50:24.976Z,24.00
2023-03-06T10:51:25.336Z,23.20
2023-03-06T10:52:25.558Z,24.30
2023-03-06T10:53:25.920Z,22.30
2023-03-06T10:54:26.141Z,24.90
2023-03-06T10:55:26.369Z,24.70
2023-03-06T10:56:26.726Z,25.40
2023-03-06T10:57:26.999Z,23.00
2023-03-06T10:58:27.211Z,24.10
2023-03-06T10:59:27.544Z,23.90
2023-03-06T11:00:27.818Z,24.30
2023-03-06T11:01:28.067Z,25.80
2023-03-06T11:02:28.276Z,24.90
2023-03-06T11:03:28.529Z,26.30
2023-03-06T11:04:28.822Z,25.20
2023-03-06T11:05:29.037Z,27.40
2023-03-06T11:06:29.385Z,26.70
2023-03-06T11:07:29.600Z,27.20
2023-03-06T11:08:29.870Z,27.60
2023-03-06T11:09:30.081Z,28.80
2023-03-06T11:10:30.362Z,27.10
2023-03-06T11:11:37.525Z,26.80
2023-03-06T11:12:31.926Z,27.20
2023-03-06T11:13:31.207Z,28.60
2023-03-06T11:14:31.437Z,29.00
2023-03-06T11:15:31.682Z,27.70
2023-03-06T11:16:31.949Z,27.90
2023-03-06T11:17:32.235Z,26.60
2023-03-06T11:18:32.454Z,28.30
2023-03-06T11:19:32.811Z,30.90
2023-03-06T11:20:44.884Z,28.80
2023-03-06T11:21:34.362Z,27.60
2023-03-06T11:22:33.617Z,30.00
2023-03-06T11:23:33.887Z,28.80
2023-03-06T11:24:34.125Z,28.40
2023-03-06T11:25:34.381Z,27.60
2023-03-06T11:26:34.617Z,29.50
2023-03-06T11:27:34.991Z,27.50
2023-03-06T11:28:35.096Z,27.80
2023-03-06T11:29:38.450Z,33.10
2023-03-06T11:30:35.790Z,32.10
2023-03-06T11:31:36.046Z,31.40
2023-03-06T11:32:36.309Z,30.50
2023-03-06T11:33:36.531Z,27.20
2023-03-06T11:34:36.805Z,25.70
2023-03-06T11:35:37.036Z,24.80
2023-03-06T11:36:37.306Z,20.60
2023-03-06T11:37:37.622Z,21.40
2023-03-06T11:38:37.835Z,23.30
2023-03-06T11:39:38.037Z,22.00
2023-03-06T11:40:38.361Z,20.60
2023-03-06T11:41:38.595Z,22.50
2023-03-06T11:42:38.970Z,23.30
2023-03-06T11:43:39.182Z,24.60
2023-03-06T11:44:39.408Z,23.80
2023-03-06T11:45:39.667Z,24.00
2023-03-06T11:46:39.989Z,25.30
2023-03-06T11:47:40.192Z,27.40
2023-03-06T11:48:40.411Z,25.40
2023-03-06T11:49:40.668Z,24.10
2023-03-06T11:50:40.929Z,23.80
2023-03-06T11:51:41.139Z,24.20
2023-03-06T11:52:41.398Z,24.90
2023-03-06T11:53:41.957Z,25.30
2023-03-06T11:54:41.936Z,24.20
2023-03-06T11:55:42.165Z,26.30
2023-03-06T11:56:42.381Z,26.50
2023-03-06T11:57:42.656Z,28.00
2023-03-06T11:58:42.887Z,25.50
2023-03-06T11:59:43.081Z,25.50
2023-03-06T12:00:43.378Z,23.40
2023-03-06T12:01:43.660Z,25.30
2023-03-06T12:02:43.880Z,23.50
2023-03-06T12:03:44.092Z,25.70
2023-03-06T12:04:44.351Z,25.40
2023-03-06T12:05:44.757Z,24.40
2023-03-06T12:06:44.978Z,25.90
2023-03-06T12:07:45.306Z,23.90
2023-03-06T12:08:45.517Z,27.70
2023-03-06T12:09:45.877Z,25.00
2023-03-06T12:10:51.466Z,25.70
2023-03-06T12:11:47.397Z,26.80
2023-03-06T12:12:46.663Z,26.90
2023-03-06T12:13:46.939Z,26.00
2023-03-06T12:14:47.181Z,26.70
2023-03-06T12:15:47.413Z,27.60
2023-03-06T12:16:47.666Z,24.50
2023-03-06T12:17:47.914Z,27.10
2023-03-06T12:18:48.159Z,26.00
2023-03-06T12:19:48.387Z,24.90
2023-03-06T12:20:48.603Z,25.30
2023-03-06T12:21:48.978Z,27.00
2023-03-06T12:22:57.538Z,28.70
2023-03-06T12:23:50.493Z,26.60
2023-03-06T12:24:49.791Z,26.70
2023-03-06T12:25:50.041Z,23.60
2023-03-06T12:26:50.243Z,24.10
2023-03-06T12:27:50.504Z,22.10
2023-03-06T12:28:50.742Z,26.30
2023-03-06T12:29:51.020Z,24.60
2023-03-06T12:30:51.261Z,24.10
2023-03-06T12:31:51.526Z,27.60
2023-03-06T12:32:51.812Z,25.60
2023-03-06T12:33:52.048Z,26.80
2023-03-06T12:34:52.407Z,26.70
2023-03-06T12:35:52.686Z,25.80
2023-03-06T12:36:52.902Z,26.70
2023-03-06T12:37:53.272Z,29.10
2023-03-06T12:38:53.526Z,25.30
2023-03-06T12:39:53.722Z,25.90
2023-03-06T12:40:53.992Z,26.20
2023-03-06T12:41:54.256Z,24.80
2023-03-06T12:42:54.510Z,24.30
2023-03-06T12:43:54.729Z,26.70
2023-03-06T12:44:55.053Z,25.70
2023-03-06T12:45:55.392Z,29.40
2023-03-06T12:46:55.609Z,23.90
2023-03-06T12:47:55.954Z,26.10
2023-03-06T12:48:56.221Z,25.70
2023-03-06T12:49:56.433Z,25.00
2023-03-06T12:50:56.825Z,26.90
2023-03-06T12:51:57.034Z,25.70
2023-03-06T12:52:57.309Z,25.00
2023-03-06T12:53:57.512Z,25.30
2023-03-06T12:54:57.777Z,24.00
2023-03-06T12:55:58.064Z,26.00